Terminal Aerodrome Forecast
Issued by NWS Bismarck, ND

Home | Current Version | Previous Version | Graphics & Text | Print | Product List | Glossary On
Versions: 1 2 3 4 5 6 7 8 9 10 11 12 13 14 15 16
000
FTUS43 KBIS 201700
TAFISN
TAF
KISN 201720Z 2018/2118 27014G22KT P6SM SKC
     FM202100 27017G25KT P6SM SCT130
     FM210100 32006KT P6SM FEW120 SCT150
     FM210500 VRB02KT P6SM SCT140
     FM210800 04008KT P6SM FEW110 SCT130=

USA.gov is the U.S. government's official web portal to all federal, state and local government web resources and services.